sensor_id;sensor_type;location;lat;lon;timestamp;P1;durP1;ratioP1;P2;durP2;ratioP2
68854;SDS011;55859;55.710;12.464;2022-08-01T00:02:26;1.30;;;1.20;;
68854;SDS011;55859;55.710;12.464;2022-08-01T00:04:53;3.35;;;1.40;;
68854;SDS011;55859;55.710;12.464;2022-08-01T00:07:19;2.60;;;1.30;;
68854;SDS011;55859;55.710;12.464;2022-08-01T00:09:44;1.25;;;1.10;;
68854;SDS011;55859;55.710;12.464;2022-08-01T00:12:10;1.70;;;1.23;;
68854;SDS011;55859;55.710;12.464;2022-08-01T00:14:35;1.20;;;1.10;;
68854;SDS011;55859;55.710;12.464;2022-08-01T00:17:00;3.17;;;1.60;;
68854;SDS011;55859;55.710;12.464;2022-08-01T00:19:26;4.05;;;1.40;;
68854;SDS011;55859;55.710;12.464;2022-08-01T00:21:51;1.83;;;1.10;;
68854;SDS011;55859;55.710;12.464;2022-08-01T00:24:16;1.70;;;1.37;;
68854;SDS011;55859;55.710;12.464;2022-08-01T00:26:42;2.63;;;1.33;;
68854;SDS011;55859;55.710;12.464;2022-08-01T00:29:07;1.60;;;1.50;;
68854;SDS011;55859;55.710;12.464;2022-08-01T00:31:32;3.23;;;1.33;;
68854;SDS011;55859;55.710;12.464;2022-08-01T00:33:58;1.97;;;1.40;;
68854;SDS011;55859;55.710;12.464;2022-08-01T00:36:23;1.63;;;1.53;;
68854;SDS011;55859;55.710;12.464;2022-08-01T00:38:48;2.60;;;1.97;;
68854;SDS011;55859;55.710;12.464;2022-08-01T00:41:13;3.80;;;1.63;;
68854;SDS011;55859;55.710;12.464;2022-08-01T00:43:39;6.28;;;1.83;;
68854;SDS011;55859;55.710;12.464;2022-08-01T00:46:04;1.83;;;1.73;;
68854;SDS011;55859;55.710;12.464;2022-08-01T00:48:30;3.70;;;1.57;;
68854;SDS011;55859;55.710;12.464;2022-08-01T00:50:55;2.90;;;2.10;;
68854;SDS011;55859;55.710;12.464;2022-08-01T00:53:21;2.38;;;1.80;;
68854;SDS011;55859;55.710;12.464;2022-08-01T00:55:46;2.65;;;2.03;;
68854;SDS011;55859;55.710;12.464;2022-08-01T00:58:13;1.85;;;1.60;;
68854;SDS011;55859;55.710;12.464;2022-08-01T01:00:38;2.30;;;1.83;;
68854;SDS011;55859;55.710;12.464;2022-08-01T01:03:03;1.70;;;1.60;;
68854;SDS011;55859;55.710;12.464;2022-08-01T01:05:29;2.17;;;1.53;;
68854;SDS011;55859;55.710;12.464;2022-08-01T01:08:08;2.00;;;1.77;;
68854;SDS011;55859;55.710;12.464;2022-08-01T01:13:35;2.15;;;1.98;;
68854;SDS011;55859;55.710;12.464;2022-08-01T01:16:08;2.72;;;1.55;;
68854;SDS011;55859;55.710;12.464;2022-08-01T01:18:37;1.77;;;1.65;;
68854;SDS011;55859;55.710;12.464;2022-08-01T01:31:31;1.75;;;1.65;;
68854;SDS011;55859;55.710;12.464;2022-08-01T01:34:01;1.63;;;1.52;;
68854;SDS011;55859;55.710;12.464;2022-08-01T01:36:29;3.85;;;1.48;;
68854;SDS011;55859;55.710;12.464;2022-08-01T01:38:57;1.45;;;1.33;;
68854;SDS011;55859;55.710;12.464;2022-08-01T01:41:25;1.73;;;1.45;;
68854;SDS011;55859;55.710;12.464;2022-08-01T01:43:51;2.85;;;1.20;;
68854;SDS011;55859;55.710;12.464;2022-08-01T01:46:19;2.20;;;1.40;;
68854;SDS011;55859;55.710;12.464;2022-08-01T01:48:48;2.65;;;1.60;;
68854;SDS011;55859;55.710;12.464;2022-08-01T01:51:14;2.15;;;1.92;;
68854;SDS011;55859;55.710;12.464;2022-08-01T01:53:41;1.92;;;1.83;;
68854;SDS011;55859;55.710;12.464;2022-08-01T01:56:08;2.25;;;2.05;;
68854;SDS011;55859;55.710;12.464;2022-08-01T01:58:35;1.90;;;1.80;;
68854;SDS011;55859;55.710;12.464;2022-08-01T02:03:30;3.83;;;1.80;;
68854;SDS011;55859;55.710;12.464;2022-08-01T02:05:56;3.10;;;2.10;;
68854;SDS011;55859;55.710;12.464;2022-08-01T02:08:22;2.33;;;1.95;;
68854;SDS011;55859;55.710;12.464;2022-08-01T02:10:50;3.70;;;1.92;;
68854;SDS011;55859;55.710;12.464;2022-08-01T02:13:36;19.33;;;2.10;;
68854;SDS011;55859;55.710;12.464;2022-08-01T02:16:03;2.33;;;1.88;;
68854;SDS011;55859;55.710;12.464;2022-08-01T02:18:30;2.17;;;1.90;;
68854;SDS011;55859;55.710;12.464;2022-08-01T02:20:57;2.33;;;2.10;;
68854;SDS011;55859;55.710;12.464;2022-08-01T02:23:24;2.13;;;1.85;;
68854;SDS011;55859;55.710;12.464;2022-08-01T02:25:57;2.72;;;1.90;;
68854;SDS011;55859;55.710;12.464;2022-08-01T02:28:27;3.05;;;1.80;;
68854;SDS011;55859;55.710;12.464;2022-08-01T02:30:59;2.00;;;1.73;;
68854;SDS011;55859;55.710;12.464;2022-08-01T02:33:28;3.05;;;2.63;;
68854;SDS011;55859;55.710;12.464;2022-08-01T02:35:59;5.68;;;2.00;;
68854;SDS011;55859;55.710;12.464;2022-08-01T02:38:28;2.15;;;2.05;;
68854;SDS011;55859;55.710;12.464;2022-08-01T02:40:57;2.25;;;2.15;;
68854;SDS011;55859;55.710;12.464;2022-08-01T02:43:25;2.33;;;2.05;;
68854;SDS011;55859;55.710;12.464;2022-08-01T02:45:54;6.75;;;2.35;;
68854;SDS011;55859;55.710;12.464;2022-08-01T02:48:24;2.80;;;2.60;;
68854;SDS011;55859;55.710;12.464;2022-08-01T02:50:51;2.72;;;2.53;;
68854;SDS011;55859;55.710;12.464;2022-08-01T02:53:19;3.03;;;2.70;;
68854;SDS011;55859;55.710;12.464;2022-08-01T02:55:48;3.15;;;2.95;;
68854;SDS011;55859;55.710;12.464;2022-08-01T02:58:16;3.20;;;3.00;;
68854;SDS011;55859;55.710;12.464;2022-08-01T03:00:44;3.25;;;3.03;;
68854;SDS011;55859;55.710;12.464;2022-08-01T03:03:11;3.70;;;3.22;;
68854;SDS011;55859;55.710;12.464;2022-08-01T03:05:38;4.65;;;3.35;;
68854;SDS011;55859;55.710;12.464;2022-08-01T03:08:05;4.43;;;3.90;;
68854;SDS011;55859;55.710;12.464;2022-08-01T03:10:33;4.68;;;4.25;;
68854;SDS011;55859;55.710;12.464;2022-08-01T03:13:01;5.05;;;3.90;;
68854;SDS011;55859;55.710;12.464;2022-08-01T03:15:29;4.80;;;4.50;;
68854;SDS011;55859;55.710;12.464;2022-08-01T03:17:59;6.55;;;5.30;;
68854;SDS011;55859;55.710;12.464;2022-08-01T03:20:27;8.40;;;6.07;;
68854;SDS011;55859;55.710;12.464;2022-08-01T03:22:54;6.97;;;5.20;;
68854;SDS011;55859;55.710;12.464;2022-08-01T03:25:22;6.03;;;5.00;;
68854;SDS011;55859;55.710;12.464;2022-08-01T03:27:55;5.47;;;5.07;;
68854;SDS011;55859;55.710;12.464;2022-08-01T03:30:23;6.18;;;5.50;;
68854;SDS011;55859;55.710;12.464;2022-08-01T03:32:50;7.07;;;6.50;;
68854;SDS011;55859;55.710;12.464;2022-08-01T03:35:15;9.73;;;6.75;;
68854;SDS011;55859;55.710;12.464;2022-08-01T03:37:42;7.45;;;6.50;;
68854;SDS011;55859;55.710;12.464;2022-08-01T03:40:13;8.45;;;7.72;;
68854;SDS011;55859;55.710;12.464;2022-08-01T03:42:52;8.05;;;7.35;;
68854;SDS011;55859;55.710;12.464;2022-08-01T03:45:23;9.05;;;7.10;;
68854;SDS011;55859;55.710;12.464;2022-08-01T03:47:59;14.50;;;8.57;;
68854;SDS011;55859;55.710;12.464;2022-08-01T03:50:27;10.48;;;9.27;;
68854;SDS011;55859;55.710;12.464;2022-08-01T03:52:57;10.25;;;9.18;;
68854;SDS011;55859;55.710;12.464;2022-08-01T03:55:25;12.32;;;10.10;;
68854;SDS011;55859;55.710;12.464;2022-08-01T03:57:51;13.80;;;10.05;;
68854;SDS011;55859;55.710;12.464;2022-08-01T04:00:17;12.52;;;10.43;;
68854;SDS011;55859;55.710;12.464;2022-08-01T04:02:46;12.65;;;10.27;;
68854;SDS011;55859;55.710;12.464;2022-08-01T04:05:12;11.40;;;10.25;;
68854;SDS011;55859;55.710;12.464;2022-08-01T04:07:37;17.85;;;12.00;;
68854;SDS011;55859;55.710;12.464;2022-08-01T04:10:08;15.70;;;10.90;;
68854;SDS011;55859;55.710;12.464;2022-08-01T04:12:33;12.55;;;9.60;;
68854;SDS011;55859;55.710;12.464;2022-08-01T04:14:59;15.77;;;11.68;;
68854;SDS011;55859;55.710;12.464;2022-08-01T04:17:24;18.93;;;11.20;;
68854;SDS011;55859;55.710;12.464;2022-08-01T04:19:50;15.90;;;11.80;;
68854;SDS011;55859;55.710;12.464;2022-08-01T04:22:16;17.05;;;12.10;;
68854;SDS011;55859;55.710;12.464;2022-08-01T04:24:46;17.80;;;12.00;;
68854;SDS011;55859;55.710;12.464;2022-08-01T04:27:14;21.98;;;13.23;;
68854;SDS011;55859;55.710;12.464;2022-08-01T04:29:42;17.98;;;13.30;;
68854;SDS011;55859;55.710;12.464;2022-08-01T04:32:10;20.15;;;13.65;;
68854;SDS011;55859;55.710;12.464;2022-08-01T04:34:39;16.90;;;11.90;;
68854;SDS011;55859;55.710;12.464;2022-08-01T04:37:07;16.15;;;12.13;;
68854;SDS011;55859;55.710;12.464;2022-08-01T04:39:35;18.27;;;13.18;;
68854;SDS011;55859;55.710;12.464;2022-08-01T04:42:04;20.85;;;12.13;;
68854;SDS011;55859;55.710;12.464;2022-08-01T04:44:32;15.77;;;12.68;;
68854;SDS011;55859;55.710;12.464;2022-08-01T04:46:58;21.67;;;12.98;;
68854;SDS011;55859;55.710;12.464;2022-08-01T04:49:25;18.67;;;12.73;;
68854;SDS011;55859;55.710;12.464;2022-08-01T04:51:52;21.52;;;14.23;;
68854;SDS011;55859;55.710;12.464;2022-08-01T04:54:28;23.45;;;14.40;;
68854;SDS011;55859;55.710;12.464;2022-08-01T04:56:54;18.58;;;13.52;;
68854;SDS011;55859;55.710;12.464;2022-08-01T04:59:24;18.80;;;14.05;;
68854;SDS011;55859;55.710;12.464;2022-08-01T05:02:06;24.55;;;14.70;;
68854;SDS011;55859;55.710;12.464;2022-08-01T05:07:00;21.67;;;14.90;;
68854;SDS011;55859;55.710;12.464;2022-08-01T05:09:25;21.67;;;14.87;;
68854;SDS011;55859;55.710;12.464;2022-08-01T05:11:51;22.67;;;15.52;;
68854;SDS011;55859;55.710;12.464;2022-08-01T05:14:16;22.08;;;14.88;;
68854;SDS011;55859;55.710;12.464;2022-08-01T05:16:42;20.00;;;14.63;;
68854;SDS011;55859;55.710;12.464;2022-08-01T05:19:07;20.00;;;15.00;;
68854;SDS011;55859;55.710;12.464;2022-08-01T05:21:33;22.48;;;14.20;;
68854;SDS011;55859;55.710;12.464;2022-08-01T05:23:58;23.40;;;15.77;;
68854;SDS011;55859;55.710;12.464;2022-08-01T05:26:24;20.80;;;14.03;;
68854;SDS011;55859;55.710;12.464;2022-08-01T05:28:49;21.00;;;15.33;;
68854;SDS011;55859;55.710;12.464;2022-08-01T05:31:14;22.43;;;14.30;;
68854;SDS011;55859;55.710;12.464;2022-08-01T05:33:40;14.67;;;11.77;;
68854;SDS011;55859;55.710;12.464;2022-08-01T05:36:05;14.77;;;13.03;;
68854;SDS011;55859;55.710;12.464;2022-08-01T05:38:30;19.38;;;14.82;;
68854;SDS011;55859;55.710;12.464;2022-08-01T05:40:56;18.67;;;12.87;;
68854;SDS011;55859;55.710;12.464;2022-08-01T05:43:21;16.27;;;11.65;;
68854;SDS011;55859;55.710;12.464;2022-08-01T05:45:46;13.30;;;11.97;;
68854;SDS011;55859;55.710;12.464;2022-08-01T05:48:12;12.15;;;10.93;;
68854;SDS011;55859;55.710;12.464;2022-08-01T05:50:37;15.60;;;11.50;;
68854;SDS011;55859;55.710;12.464;2022-08-01T05:53:02;12.87;;;11.60;;
68854;SDS011;55859;55.710;12.464;2022-08-01T05:55:28;13.33;;;10.77;;
68854;SDS011;55859;55.710;12.464;2022-08-01T05:57:53;16.40;;;11.30;;
68854;SDS011;55859;55.710;12.464;2022-08-01T06:00:19;15.33;;;11.00;;
68854;SDS011;55859;55.710;12.464;2022-08-01T06:02:44;17.27;;;11.93;;
68854;SDS011;55859;55.710;12.464;2022-08-01T06:05:10;12.15;;;11.05;;
68854;SDS011;55859;55.710;12.464;2022-08-01T06:07:35;14.60;;;11.80;;
68854;SDS011;55859;55.710;12.464;2022-08-01T06:10:01;16.00;;;11.55;;
68854;SDS011;55859;55.710;12.464;2022-08-01T06:12:26;14.93;;;12.27;;
68854;SDS011;55859;55.710;12.464;2022-08-01T06:14:52;14.30;;;12.13;;
68854;SDS011;55859;55.710;12.464;2022-08-01T06:17:17;16.83;;;12.97;;
68854;SDS011;55859;55.710;12.464;2022-08-01T06:19:42;13.67;;;12.23;;
68854;SDS011;55859;55.710;12.464;2022-08-01T06:22:08;16.90;;;11.10;;
68854;SDS011;55859;55.710;12.464;2022-08-01T06:24:33;12.32;;;11.18;;
68854;SDS011;55859;55.710;12.464;2022-08-01T06:26:58;12.90;;;11.53;;
68854;SDS011;55859;55.710;12.464;2022-08-01T06:29:24;11.47;;;10.47;;
68854;SDS011;55859;55.710;12.464;2022-08-01T06:31:49;10.70;;;9.60;;
68854;SDS011;55859;55.710;12.464;2022-08-01T06:34:14;10.63;;;9.73;;
68854;SDS011;55859;55.710;12.464;2022-08-01T06:36:40;10.82;;;9.65;;
68854;SDS011;55859;55.710;12.464;2022-08-01T06:39:06;12.95;;;9.80;;
68854;SDS011;55859;55.710;12.464;2022-08-01T06:41:31;11.15;;;10.13;;
68854;SDS011;55859;55.710;12.464;2022-08-01T06:43:56;10.50;;;9.57;;
68854;SDS011;55859;55.710;12.464;2022-08-01T06:46:22;10.88;;;9.98;;
68854;SDS011;55859;55.710;12.464;2022-08-01T06:48:47;10.20;;;9.30;;
68854;SDS011;55859;55.710;12.464;2022-08-01T06:51:13;11.20;;;9.85;;
68854;SDS011;55859;55.710;12.464;2022-08-01T06:53:41;9.88;;;9.07;;
68854;SDS011;55859;55.710;12.464;2022-08-01T06:56:07;10.88;;;8.98;;
68854;SDS011;55859;55.710;12.464;2022-08-01T06:58:33;10.32;;;9.32;;
68854;SDS011;55859;55.710;12.464;2022-08-01T07:00:59;10.25;;;9.35;;
68854;SDS011;55859;55.710;12.464;2022-08-01T07:03:25;9.32;;;8.63;;
68854;SDS011;55859;55.710;12.464;2022-08-01T07:05:51;8.85;;;8.00;;
68854;SDS011;55859;55.710;12.464;2022-08-01T07:08:16;8.18;;;7.47;;
68854;SDS011;55859;55.710;12.464;2022-08-01T07:10:41;7.57;;;7.07;;
68854;SDS011;55859;55.710;12.464;2022-08-01T07:13:08;8.20;;;7.43;;
68854;SDS011;55859;55.710;12.464;2022-08-01T07:15:33;8.38;;;7.50;;
68854;SDS011;55859;55.710;12.464;2022-08-01T07:17:58;7.95;;;7.32;;
68854;SDS011;55859;55.710;12.464;2022-08-01T07:20:26;7.18;;;6.75;;
68854;SDS011;55859;55.710;12.464;2022-08-01T07:22:51;8.50;;;7.78;;
68854;SDS011;55859;55.710;12.464;2022-08-01T07:25:17;8.63;;;7.72;;
68854;SDS011;55859;55.710;12.464;2022-08-01T07:27:42;8.40;;;7.80;;
68854;SDS011;55859;55.710;12.464;2022-08-01T07:30:08;8.27;;;7.63;;
68854;SDS011;55859;55.710;12.464;2022-08-01T07:32:34;9.82;;;7.75;;
68854;SDS011;55859;55.710;12.464;2022-08-01T07:34:59;7.82;;;7.22;;
68854;SDS011;55859;55.710;12.464;2022-08-01T07:37:25;8.10;;;7.32;;
68854;SDS011;55859;55.710;12.464;2022-08-01T07:39:51;9.10;;;8.23;;
68854;SDS011;55859;55.710;12.464;2022-08-01T07:42:16;8.98;;;8.07;;
68854;SDS011;55859;55.710;12.464;2022-08-01T07:44:42;9.53;;;8.10;;
68854;SDS011;55859;55.710;12.464;2022-08-01T07:47:07;8.13;;;7.45;;
68854;SDS011;55859;55.710;12.464;2022-08-01T07:49:33;8.38;;;7.57;;
68854;SDS011;55859;55.710;12.464;2022-08-01T07:51:58;10.18;;;9.18;;
68854;SDS011;55859;55.710;12.464;2022-08-01T07:54:24;8.23;;;7.60;;
68854;SDS011;55859;55.710;12.464;2022-08-01T07:56:50;10.80;;;8.15;;
68854;SDS011;55859;55.710;12.464;2022-08-01T07:59:16;8.02;;;7.15;;
68854;SDS011;55859;55.710;12.464;2022-08-01T08:01:41;7.28;;;6.78;;
68854;SDS011;55859;55.710;12.464;2022-08-01T08:04:07;7.35;;;6.65;;
68854;SDS011;55859;55.710;12.464;2022-08-01T08:06:32;10.70;;;7.95;;
68854;SDS011;55859;55.710;12.464;2022-08-01T08:08:58;8.70;;;6.95;;
68854;SDS011;55859;55.710;12.464;2022-08-01T08:11:23;8.33;;;7.40;;
68854;SDS011;55859;55.710;12.464;2022-08-01T08:13:48;7.22;;;6.63;;
68854;SDS011;55859;55.710;12.464;2022-08-01T08:16:14;8.97;;;7.20;;
68854;SDS011;55859;55.710;12.464;2022-08-01T08:18:39;6.25;;;5.75;;
68854;SDS011;55859;55.710;12.464;2022-08-01T08:21:04;12.77;;;6.23;;
68854;SDS011;55859;55.710;12.464;2022-08-01T08:23:30;6.00;;;5.53;;
68854;SDS011;55859;55.710;12.464;2022-08-01T08:26:14;6.25;;;5.70;;
68854;SDS011;55859;55.710;12.464;2022-08-01T08:28:39;6.88;;;6.18;;
68854;SDS011;55859;55.710;12.464;2022-08-01T08:31:04;6.65;;;6.05;;
68854;SDS011;55859;55.710;12.464;2022-08-01T08:33:30;6.78;;;6.15;;
68854;SDS011;55859;55.710;12.464;2022-08-01T08:35:55;7.38;;;6.65;;
68854;SDS011;55859;55.710;12.464;2022-08-01T08:38:20;6.90;;;6.35;;
68854;SDS011;55859;55.710;12.464;2022-08-01T08:40:46;7.27;;;6.30;;
68854;SDS011;55859;55.710;12.464;2022-08-01T08:43:11;9.40;;;6.57;;
68854;SDS011;55859;55.710;12.464;2022-08-01T08:45:37;7.22;;;6.57;;
68854;SDS011;55859;55.710;12.464;2022-08-01T08:48:04;7.43;;;6.78;;
68854;SDS011;55859;55.710;12.464;2022-08-01T08:50:30;7.10;;;5.97;;
68854;SDS011;55859;55.710;12.464;2022-08-01T08:52:56;7.72;;;7.05;;
68854;SDS011;55859;55.710;12.464;2022-08-01T08:55:25;12.23;;;7.78;;
68854;SDS011;55859;55.710;12.464;2022-08-01T08:57:52;8.32;;;7.50;;
68854;SDS011;55859;55.710;12.464;2022-08-01T09:00:19;10.68;;;7.68;;
68854;SDS011;55859;55.710;12.464;2022-08-01T09:02:45;12.48;;;8.05;;
68854;SDS011;55859;55.710;12.464;2022-08-01T09:05:12;7.88;;;7.05;;
68854;SDS011;55859;55.710;12.464;2022-08-01T09:07:38;8.10;;;7.43;;
68854;SDS011;55859;55.710;12.464;2022-08-01T09:10:03;12.43;;;8.68;;
68854;SDS011;55859;55.710;12.464;2022-08-01T09:12:29;8.80;;;7.85;;
68854;SDS011;55859;55.710;12.464;2022-08-01T09:14:55;13.02;;;9.07;;
68854;SDS011;55859;55.710;12.464;2022-08-01T09:17:20;9.43;;;8.18;;
68854;SDS011;55859;55.710;12.464;2022-08-01T09:19:53;10.18;;;9.20;;
68854;SDS011;55859;55.710;12.464;2022-08-01T09:22:23;15.07;;;8.95;;
68854;SDS011;55859;55.710;12.464;2022-08-01T09:25:22;9.88;;;8.48;;
68854;SDS011;55859;55.710;12.464;2022-08-01T09:27:41;11.18;;;8.95;;
68854;SDS011;55859;55.710;12.464;2022-08-01T09:30:08;10.30;;;7.93;;
68854;SDS011;55859;55.710;12.464;2022-08-01T09:40:13;15.63;;;8.60;;
68854;SDS011;55859;55.710;12.464;2022-08-01T09:42:39;5.20;;;4.73;;
68854;SDS011;55859;55.710;12.464;2022-08-01T09:45:04;3.93;;;3.07;;
68854;SDS011;55859;55.710;12.464;2022-08-01T09:47:39;4.97;;;2.78;;
68854;SDS011;55859;55.710;12.464;2022-08-01T09:50:05;6.25;;;3.55;;
68854;SDS011;55859;55.710;12.464;2022-08-01T09:52:32;5.82;;;3.20;;
68854;SDS011;55859;55.710;12.464;2022-08-01T09:54:58;8.30;;;3.40;;
68854;SDS011;55859;55.710;12.464;2022-08-01T09:57:25;15.20;;;3.40;;
68854;SDS011;55859;55.710;12.464;2022-08-01T09:59:52;13.10;;;4.20;;
68854;SDS011;55859;55.710;12.464;2022-08-01T10:04:59;21.25;;;5.20;;
68854;SDS011;55859;55.710;12.464;2022-08-01T10:07:27;10.32;;;3.90;;
68854;SDS011;55859;55.710;12.464;2022-08-01T10:09:52;10.63;;;4.00;;
68854;SDS011;55859;55.710;12.464;2022-08-01T10:12:19;6.45;;;3.05;;
68854;SDS011;55859;55.710;12.464;2022-08-01T10:14:48;7.78;;;3.45;;
68854;SDS011;55859;55.710;12.464;2022-08-01T10:17:15;13.43;;;3.55;;
68854;SDS011;55859;55.710;12.464;2022-08-01T10:19:42;7.07;;;3.25;;
68854;SDS011;55859;55.710;12.464;2022-08-01T10:22:09;11.27;;;3.03;;
68854;SDS011;55859;55.710;12.464;2022-08-01T10:24:36;12.45;;;3.67;;
68854;SDS011;55859;55.710;12.464;2022-08-01T10:27:05;12.05;;;3.20;;
68854;SDS011;55859;55.710;12.464;2022-08-01T10:29:34;9.55;;;2.90;;
68854;SDS011;55859;55.710;12.464;2022-08-01T10:32:03;11.35;;;3.05;;
68854;SDS011;55859;55.710;12.464;2022-08-01T10:34:30;9.07;;;3.25;;
68854;SDS011;55859;55.710;12.464;2022-08-01T10:36:56;13.93;;;2.95;;
68854;SDS011;55859;55.710;12.464;2022-08-01T10:39:22;18.25;;;3.55;;
68854;SDS011;55859;55.710;12.464;2022-08-01T10:41:48;7.00;;;2.75;;
68854;SDS011;55859;55.710;12.464;2022-08-01T10:44:14;6.03;;;2.00;;
68854;SDS011;55859;55.710;12.464;2022-08-01T10:46:42;10.48;;;1.83;;
68854;SDS011;55859;55.710;12.464;2022-08-01T10:49:13;11.70;;;1.85;;
68854;SDS011;55859;55.710;12.464;2022-08-01T10:54:07;7.90;;;1.60;;
68854;SDS011;55859;55.710;12.464;2022-08-01T10:56:45;8.27;;;1.63;;
68854;SDS011;55859;55.710;12.464;2022-08-01T11:01:56;6.63;;;1.70;;
68854;SDS011;55859;55.710;12.464;2022-08-01T11:04:24;11.93;;;1.52;;
68854;SDS011;55859;55.710;12.464;2022-08-01T11:07:10;6.68;;;1.23;;
68854;SDS011;55859;55.710;12.464;2022-08-01T11:12:23;10.88;;;1.35;;
68854;SDS011;55859;55.710;12.464;2022-08-01T11:17:30;1.60;;;0.90;;
68854;SDS011;55859;55.710;12.464;2022-08-01T11:30:39;5.18;;;1.42;;
68854;SDS011;55859;55.710;12.464;2022-08-01T11:33:06;3.22;;;1.42;;
68854;SDS011;55859;55.710;12.464;2022-08-01T11:35:32;6.03;;;1.10;;
68854;SDS011;55859;55.710;12.464;2022-08-01T11:38:22;6.15;;;1.30;;
68854;SDS011;55859;55.710;12.464;2022-08-01T11:41:08;6.45;;;1.00;;
68854;SDS011;55859;55.710;12.464;2022-08-01T11:52:08;18.23;;;1.33;;
68854;SDS011;55859;55.710;12.464;2022-08-01T11:54:46;4.05;;;1.05;;
68854;SDS011;55859;55.710;12.464;2022-08-01T11:59:52;5.18;;;1.23;;
68854;SDS011;55859;55.710;12.464;2022-08-01T12:07:19;2.00;;;0.73;;
68854;SDS011;55859;55.710;12.464;2022-08-01T12:09:46;4.82;;;1.02;;
68854;SDS011;55859;55.710;12.464;2022-08-01T12:12:16;6.63;;;1.55;;
68854;SDS011;55859;55.710;12.464;2022-08-01T12:14:42;4.05;;;1.38;;
68854;SDS011;55859;55.710;12.464;2022-08-01T12:17:08;8.02;;;0.98;;
68854;SDS011;55859;55.710;12.464;2022-08-01T12:19:33;2.72;;;0.70;;
68854;SDS011;55859;55.710;12.464;2022-08-01T12:22:21;5.68;;;1.02;;
68854;SDS011;55859;55.710;12.464;2022-08-01T12:24:47;2.72;;;0.82;;
68854;SDS011;55859;55.710;12.464;2022-08-01T12:27:12;4.60;;;1.20;;
68854;SDS011;55859;55.710;12.464;2022-08-01T12:29:49;3.83;;;0.85;;
68854;SDS011;55859;55.710;12.464;2022-08-01T12:32:21;2.03;;;1.00;;
68854;SDS011;55859;55.710;12.464;2022-08-01T12:34:49;5.40;;;0.85;;
68854;SDS011;55859;55.710;12.464;2022-08-01T12:37:16;3.00;;;0.90;;
68854;SDS011;55859;55.710;12.464;2022-08-01T12:39:43;3.05;;;1.23;;
68854;SDS011;55859;55.710;12.464;2022-08-01T12:42:09;12.27;;;1.15;;
68854;SDS011;55859;55.710;12.464;2022-08-01T12:44:36;2.33;;;0.73;;
68854;SDS011;55859;55.710;12.464;2022-08-01T12:47:03;6.25;;;1.38;;
68854;SDS011;55859;55.710;12.464;2022-08-01T12:49:31;9.50;;;1.40;;
68854;SDS011;55859;55.710;12.464;2022-08-01T12:52:03;6.10;;;1.10;;
68854;SDS011;55859;55.710;12.464;2022-08-01T12:54:29;6.38;;;1.50;;
68854;SDS011;55859;55.710;12.464;2022-08-01T12:56:54;10.90;;;1.27;;
68854;SDS011;55859;55.710;12.464;2022-08-01T12:59:21;8.00;;;1.33;;
68854;SDS011;55859;55.710;12.464;2022-08-01T13:01:47;5.20;;;0.80;;
68854;SDS011;55859;55.710;12.464;2022-08-01T13:04:12;2.63;;;1.02;;
68854;SDS011;55859;55.710;12.464;2022-08-01T13:06:38;4.43;;;1.15;;
68854;SDS011;55859;55.710;12.464;2022-08-01T13:09:10;5.40;;;0.93;;
68854;SDS011;55859;55.710;12.464;2022-08-01T13:11:36;8.18;;;1.30;;
68854;SDS011;55859;55.710;12.464;2022-08-01T13:14:02;4.15;;;1.17;;
68854;SDS011;55859;55.710;12.464;2022-08-01T13:16:27;5.03;;;0.98;;
68854;SDS011;55859;55.710;12.464;2022-08-01T13:18:54;6.13;;;1.30;;
68854;SDS011;55859;55.710;12.464;2022-08-01T13:24:07;6.63;;;0.80;;
68854;SDS011;55859;55.710;12.464;2022-08-01T13:26:47;7.35;;;1.20;;
68854;SDS011;55859;55.710;12.464;2022-08-01T13:31:46;6.30;;;1.08;;
68854;SDS011;55859;55.710;12.464;2022-08-01T13:34:12;3.45;;;1.00;;
68854;SDS011;55859;55.710;12.464;2022-08-01T13:36:38;5.03;;;0.90;;
68854;SDS011;55859;55.710;12.464;2022-08-01T13:39:04;3.97;;;1.05;;
68854;SDS011;55859;55.710;12.464;2022-08-01T13:41:48;4.07;;;0.98;;
68854;SDS011;55859;55.710;12.464;2022-08-01T13:44:14;7.88;;;1.20;;
68854;SDS011;55859;55.710;12.464;2022-08-01T13:46:40;6.63;;;1.50;;
68854;SDS011;55859;55.710;12.464;2022-08-01T13:49:07;25.63;;;1.50;;
68854;SDS011;55859;55.710;12.464;2022-08-01T13:51:33;2.83;;;0.80;;
68854;SDS011;55859;55.710;12.464;2022-08-01T13:53:59;2.53;;;1.10;;
68854;SDS011;55859;55.710;12.464;2022-08-01T13:56:25;3.28;;;1.27;;
68854;SDS011;55859;55.710;12.464;2022-08-01T13:58:52;3.47;;;1.35;;
68854;SDS011;55859;55.710;12.464;2022-08-01T14:01:18;4.93;;;0.80;;
68854;SDS011;55859;55.710;12.464;2022-08-01T14:03:44;4.53;;;1.65;;
68854;SDS011;55859;55.710;12.464;2022-08-01T14:06:09;4.33;;;1.10;;
68854;SDS011;55859;55.710;12.464;2022-08-01T14:08:35;4.30;;;1.35;;
68854;SDS011;55859;55.710;12.464;2022-08-01T14:11:00;7.43;;;0.93;;
68854;SDS011;55859;55.710;12.464;2022-08-01T14:13:26;7.22;;;1.20;;
68854;SDS011;55859;55.710;12.464;2022-08-01T14:15:51;9.30;;;1.85;;
68854;SDS011;55859;55.710;12.464;2022-08-01T14:18:17;8.82;;;1.52;;
68854;SDS011;55859;55.710;12.464;2022-08-01T14:20:43;2.92;;;0.90;;
68854;SDS011;55859;55.710;12.464;2022-08-01T14:23:09;4.95;;;1.30;;
68854;SDS011;55859;55.710;12.464;2022-08-01T14:25:37;6.15;;;1.15;;
68854;SDS011;55859;55.710;12.464;2022-08-01T14:28:04;4.68;;;1.00;;
68854;SDS011;55859;55.710;12.464;2022-08-01T14:30:31;7.55;;;1.38;;
68854;SDS011;55859;55.710;12.464;2022-08-01T14:32:56;5.38;;;1.00;;
68854;SDS011;55859;55.710;12.464;2022-08-01T14:35:21;8.87;;;1.00;;
68854;SDS011;55859;55.710;12.464;2022-08-01T14:37:47;4.05;;;1.10;;
68854;SDS011;55859;55.710;12.464;2022-08-01T14:40:12;8.47;;;1.33;;
68854;SDS011;55859;55.710;12.464;2022-08-01T14:42:38;2.88;;;0.82;;
68854;SDS011;55859;55.710;12.464;2022-08-01T14:45:04;7.57;;;1.23;;
68854;SDS011;55859;55.710;12.464;2022-08-01T14:47:34;3.78;;;0.75;;
68854;SDS011;55859;55.710;12.464;2022-08-01T14:50:01;4.22;;;1.13;;
68854;SDS011;55859;55.710;12.464;2022-08-01T14:52:26;10.90;;;0.90;;
68854;SDS011;55859;55.710;12.464;2022-08-01T14:54:52;4.47;;;0.83;;
68854;SDS011;55859;55.710;12.464;2022-08-01T14:57:17;3.07;;;0.87;;
68854;SDS011;55859;55.710;12.464;2022-08-01T14:59:43;5.70;;;0.95;;
68854;SDS011;55859;55.710;12.464;2022-08-01T15:02:09;4.35;;;0.85;;
68854;SDS011;55859;55.710;12.464;2022-08-01T15:04:35;5.32;;;1.05;;
68854;SDS011;55859;55.710;12.464;2022-08-01T15:07:01;4.03;;;1.00;;
68854;SDS011;55859;55.710;12.464;2022-08-01T15:09:26;6.68;;;1.10;;
68854;SDS011;55859;55.710;12.464;2022-08-01T15:11:51;13.20;;;1.00;;
68854;SDS011;55859;55.710;12.464;2022-08-01T15:14:17;4.90;;;0.75;;
68854;SDS011;55859;55.710;12.464;2022-08-01T15:17:00;11.00;;;1.98;;
68854;SDS011;55859;55.710;12.464;2022-08-01T15:19:26;4.45;;;0.82;;
68854;SDS011;55859;55.710;12.464;2022-08-01T15:21:51;2.35;;;0.88;;
68854;SDS011;55859;55.710;12.464;2022-08-01T15:24:17;2.25;;;0.85;;
68854;SDS011;55859;55.710;12.464;2022-08-01T15:26:42;4.47;;;1.00;;
68854;SDS011;55859;55.710;12.464;2022-08-01T15:29:07;3.03;;;0.83;;
68854;SDS011;55859;55.710;12.464;2022-08-01T15:31:33;3.53;;;1.20;;
68854;SDS011;55859;55.710;12.464;2022-08-01T15:33:58;4.97;;;1.48;;
68854;SDS011;55859;55.710;12.464;2022-08-01T15:36:23;5.50;;;0.90;;
68854;SDS011;55859;55.710;12.464;2022-08-01T15:38:49;3.75;;;1.13;;
68854;SDS011;55859;55.710;12.464;2022-08-01T15:41:14;6.57;;;1.20;;